createdAt,value
2022-12-25T00:00:20.964Z,6.10
2022-12-25T00:03:22.936Z,6.12
2022-12-25T00:06:24.716Z,6.20
2022-12-25T00:09:26.412Z,6.24
2022-12-25T00:12:27.936Z,6.32
2022-12-25T00:15:29.471Z,6.30
2022-12-25T00:18:30.924Z,6.26
2022-12-25T00:21:32.374Z,6.19
2022-12-25T00:24:34.097Z,6.17
2022-12-25T00:27:35.695Z,6.24
2022-12-25T00:30:37.860Z,6.23
2022-12-25T00:33:42.196Z,6.22
2022-12-25T00:36:43.650Z,6.17
2022-12-25T00:39:45.136Z,6.17
2022-12-25T00:42:49.003Z,6.15
2022-12-25T00:45:58.638Z,6.12
2022-12-25T00:49:00.244Z,6.11
2022-12-25T00:52:01.799Z,6.14
2022-12-25T00:55:04.235Z,6.22
2022-12-25T00:58:05.702Z,6.23
2022-12-25T01:01:09.298Z,6.17
2022-12-25T01:04:11.469Z,6.17
2022-12-25T01:07:13.159Z,6.18
2022-12-25T01:10:14.672Z,6.19
2022-12-25T01:13:16.152Z,6.20
2022-12-25T01:16:17.853Z,6.21
2022-12-25T01:19:19.373Z,6.24
2022-12-25T01:22:21.002Z,6.28
2022-12-25T01:25:22.471Z,6.27
2022-12-25T01:28:23.924Z,6.30
2022-12-25T01:31:25.463Z,6.31
2022-12-25T01:34:26.933Z,6.24
2022-12-25T01:37:28.418Z,6.14
2022-12-25T01:40:29.947Z,5.93
2022-12-25T01:43:34.199Z,5.69
2022-12-25T01:46:36.172Z,5.54
2022-12-25T01:49:39.263Z,5.60
2022-12-25T01:52:41.397Z,5.87
2022-12-25T01:55:44.228Z,5.89
2022-12-25T01:58:45.964Z,5.94
2022-12-25T02:01:47.852Z,5.99
2022-12-25T02:04:56.250Z,5.92
2022-12-25T02:08:01.898Z,5.94
2022-12-25T02:11:03.413Z,5.93
2022-12-25T02:14:05.428Z,5.97
2022-12-25T02:17:18.987Z,6.13
2022-12-25T02:20:50.331Z,6.14
2022-12-25T02:24:06.003Z,6.26
2022-12-25T02:27:18.090Z,6.28
2022-12-25T02:30:19.791Z,6.20
2022-12-25T02:33:46.114Z,6.20
2022-12-25T02:36:59.674Z,6.21
2022-12-25T02:40:05.870Z,6.14
2022-12-25T02:43:14.107Z,6.18
2022-12-25T02:46:19.153Z,6.18
2022-12-25T02:49:24.463Z,6.20
2022-12-25T02:52:29.713Z,6.20
2022-12-25T02:55:36.368Z,6.21
2022-12-25T02:58:41.359Z,6.23
2022-12-25T03:01:44.696Z,6.28
2022-12-25T03:04:48.545Z,6.32
2022-12-25T03:07:50.768Z,6.34
2022-12-25T03:10:59.895Z,6.37
2022-12-25T03:14:07.629Z,6.41
2022-12-25T03:17:09.259Z,6.47
2022-12-25T03:20:11.367Z,6.48
2022-12-25T03:23:15.746Z,6.48
2022-12-25T03:26:17.233Z,6.51
2022-12-25T03:29:18.792Z,6.57
2022-12-25T03:32:56.845Z,6.68
2022-12-25T03:36:20.632Z,6.78
2022-12-25T03:39:34.732Z,6.83
2022-12-25T03:42:41.306Z,6.84
2022-12-25T03:45:47.948Z,6.88
2022-12-25T03:48:53.192Z,6.88
2022-12-25T03:52:01.162Z,6.88
2022-12-25T03:55:07.792Z,6.90
2022-12-25T03:58:25.122Z,6.90
2022-12-25T04:01:26.751Z,6.89
2022-12-25T04:04:28.760Z,6.91
2022-12-25T04:07:30.291Z,6.88
2022-12-25T04:10:31.899Z,6.87
2022-12-25T04:13:33.418Z,6.88
2022-12-25T04:16:34.921Z,6.90
2022-12-25T04:19:36.442Z,6.83
2022-12-25T04:22:37.948Z,6.76
2022-12-25T04:25:39.375Z,6.75
2022-12-25T04:28:40.956Z,6.67
2022-12-25T04:31:42.542Z,6.66
2022-12-25T04:34:44.086Z,6.58
2022-12-25T04:37:45.522Z,6.52
2022-12-25T04:40:47.262Z,6.47
2022-12-25T04:43:48.753Z,6.41
2022-12-25T04:46:50.344Z,6.43
2022-12-25T04:49:51.931Z,6.32
2022-12-25T04:52:53.629Z,6.29
2022-12-25T04:56:01.384Z,6.37
2022-12-25T04:59:02.955Z,6.32
2022-12-25T05:02:04.640Z,6.39
2022-12-25T05:05:06.542Z,6.36
2022-12-25T05:08:08.013Z,6.31
2022-12-25T05:11:11.879Z,6.28
2022-12-25T05:14:13.310Z,6.20
2022-12-25T05:17:14.860Z,6.26
2022-12-25T05:20:16.396Z,6.22
2022-12-25T05:23:17.861Z,6.19
2022-12-25T05:26:22.194Z,6.24
2022-12-25T05:29:23.754Z,6.30
2022-12-25T05:32:25.241Z,6.38
2022-12-25T05:35:26.760Z,6.42
2022-12-25T05:38:28.198Z,6.40
2022-12-25T05:41:34.148Z,6.47
2022-12-25T05:44:36.496Z,6.50
2022-12-25T05:47:38.271Z,6.44
2022-12-25T05:50:39.836Z,6.40
2022-12-25T05:53:42.675Z,6.43
2022-12-25T05:56:44.158Z,6.51
2022-12-25T05:59:45.732Z,6.56
2022-12-25T06:02:47.287Z,6.56
2022-12-25T06:05:48.890Z,6.57
2022-12-25T06:08:53.896Z,6.60
2022-12-25T06:11:55.459Z,6.63
2022-12-25T06:14:57.037Z,6.67
2022-12-25T06:18:01.823Z,6.74
2022-12-25T06:21:08.362Z,6.75
2022-12-25T06:24:10.424Z,6.82
2022-12-25T06:27:15.454Z,6.88
2022-12-25T06:30:17.072Z,6.87
2022-12-25T06:33:18.506Z,6.87
2022-12-25T06:36:23.414Z,6.88
2022-12-25T06:39:24.902Z,6.94
2022-12-25T06:42:26.419Z,6.91
2022-12-25T06:45:27.983Z,6.91
2022-12-25T06:48:29.535Z,6.91
2022-12-25T06:51:32.630Z,6.96
2022-12-25T06:54:34.165Z,6.99
2022-12-25T06:57:35.584Z,7.05
2022-12-25T07:00:37.063Z,7.10
2022-12-25T07:03:38.559Z,7.09
2022-12-25T07:06:40.129Z,7.06
2022-12-25T07:09:41.648Z,7.04
2022-12-25T07:12:43.150Z,7.03
2022-12-25T07:15:44.944Z,7.03
2022-12-25T07:18:46.504Z,7.02
2022-12-25T07:21:47.984Z,7.00
2022-12-25T07:24:49.421Z,6.99
2022-12-25T07:27:50.915Z,6.99
2022-12-25T07:30:53.164Z,6.98
2022-12-25T07:33:54.819Z,6.99
2022-12-25T07:36:56.370Z,7.03
2022-12-25T07:39:57.815Z,7.04
2022-12-25T07:42:59.299Z,7.07
2022-12-25T07:46:01.029Z,7.12
2022-12-25T07:49:02.659Z,7.11
2022-12-25T07:52:04.458Z,7.12
2022-12-25T07:55:06.467Z,7.20
2022-12-25T07:58:07.946Z,7.16
2022-12-25T08:01:21.051Z,7.16
2022-12-25T08:04:22.745Z,7.18
2022-12-25T08:07:24.455Z,7.22
2022-12-25T08:10:26.115Z,7.23
2022-12-25T08:13:31.234Z,7.20
2022-12-25T08:16:32.882Z,7.19
2022-12-25T08:19:34.447Z,7.21
2022-12-25T08:22:36.007Z,7.21
2022-12-25T08:25:37.505Z,7.23
2022-12-25T08:28:39.398Z,7.23
2022-12-25T08:31:46.494Z,7.25
2022-12-25T08:34:48.162Z,7.25
2022-12-25T08:37:49.608Z,7.28
2022-12-25T08:40:51.162Z,7.29
2022-12-25T08:43:53.297Z,7.30
2022-12-25T08:46:54.960Z,7.30
2022-12-25T08:49:56.433Z,7.37
2022-12-25T08:52:58.040Z,7.41
2022-12-25T08:56:01.671Z,7.37
2022-12-25T08:59:03.192Z,7.32
2022-12-25T09:02:05.033Z,7.32
2022-12-25T09:05:07.333Z,7.33
2022-12-25T09:08:08.900Z,7.37
2022-12-25T09:11:13.085Z,7.40
2022-12-25T09:14:16.841Z,7.41
2022-12-25T09:17:19.584Z,7.40
2022-12-25T09:20:21.259Z,7.42
2022-12-25T09:23:22.805Z,7.43
2022-12-25T09:26:24.294Z,7.45
2022-12-25T09:29:25.775Z,7.44
2022-12-25T09:32:27.304Z,7.43
2022-12-25T09:35:28.854Z,7.42
2022-12-25T09:38:31.343Z,7.45
2022-12-25T09:41:48.795Z,7.42
2022-12-25T09:44:57.107Z,7.46
2022-12-25T09:47:58.927Z,7.48
2022-12-25T09:51:09.796Z,7.49
2022-12-25T09:54:21.379Z,7.51
2022-12-25T09:57:25.517Z,7.47
2022-12-25T10:00:40.043Z,7.47
2022-12-25T10:03:49.440Z,7.49
2022-12-25T10:07:03.800Z,7.51
2022-12-25T10:10:33.160Z,7.49
2022-12-25T10:13:52.313Z,7.46
2022-12-25T10:16:59.847Z,7.49
2022-12-25T10:20:29.854Z,7.48
2022-12-25T10:23:39.231Z,7.46
2022-12-25T10:26:40.939Z,7.44
2022-12-25T10:29:44.716Z,7.44
2022-12-25T10:32:47.535Z,7.45
2022-12-25T10:35:49.385Z,7.41
2022-12-25T10:38:54.305Z,7.41
2022-12-25T10:42:01.896Z,7.43
2022-12-25T10:45:06.556Z,7.46
2022-12-25T10:48:08.232Z,7.51
2022-12-25T10:51:10.057Z,7.56
2022-12-25T10:54:31.126Z,7.60
2022-12-25T10:57:45.064Z,7.71
2022-12-25T11:00:53.313Z,7.69
2022-12-25T11:03:54.815Z,7.65
2022-12-25T11:07:06.639Z,7.61
2022-12-25T11:10:34.666Z,7.66
2022-12-25T11:13:48.090Z,7.73
2022-12-25T11:16:49.772Z,7.73
2022-12-25T11:19:57.001Z,7.78
2022-12-25T11:22:58.514Z,7.88
2022-12-25T11:26:04.636Z,7.91
2022-12-25T11:29:36.554Z,7.94
2022-12-25T11:32:43.358Z,7.89
2022-12-25T11:35:52.291Z,7.86
2022-12-25T11:38:53.873Z,7.86
2022-12-25T11:42:18.461Z,7.77
2022-12-25T11:45:25.034Z,7.72
2022-12-25T11:48:44.905Z,7.69
2022-12-25T11:51:51.685Z,7.74
2022-12-25T11:55:14.743Z,7.74
2022-12-25T11:58:22.363Z,7.83
2022-12-25T12:01:43.708Z,7.97
2022-12-25T12:04:49.713Z,8.09
2022-12-25T12:08:00.871Z,8.02
2022-12-25T12:11:14.364Z,8.05
2022-12-25T12:14:34.437Z,8.05
2022-12-25T12:17:35.995Z,8.02
2022-12-25T12:20:37.589Z,8.08
2022-12-25T12:24:02.386Z,8.03
2022-12-25T12:27:27.567Z,7.94
2022-12-25T12:30:35.500Z,7.89
2022-12-25T12:34:00.584Z,7.84
2022-12-25T12:37:12.763Z,7.84
2022-12-25T12:40:29.020Z,7.80
2022-12-25T12:43:40.827Z,7.79
2022-12-25T12:46:57.432Z,7.83
2022-12-25T12:50:01.030Z,7.82
2022-12-25T12:53:28.735Z,7.82
2022-12-25T12:56:30.296Z,7.81
2022-12-25T12:59:43.421Z,7.79
2022-12-25T13:03:20.555Z,7.75
2022-12-25T13:06:46.124Z,7.74
2022-12-25T13:09:56.831Z,7.72
2022-12-25T13:13:01.915Z,7.68
2022-12-25T13:16:04.087Z,7.69
2022-12-25T13:19:08.359Z,7.65
2022-12-25T13:22:21.575Z,7.65
2022-12-25T13:25:24.011Z,7.64
2022-12-25T13:28:27.522Z,7.63
2022-12-25T13:31:30.814Z,7.63
2022-12-25T13:34:38.350Z,7.62
2022-12-25T13:37:41.299Z,7.61
2022-12-25T13:40:54.985Z,7.62
2022-12-25T13:43:59.800Z,7.61
2022-12-25T13:47:19.318Z,7.62
2022-12-25T13:50:30.199Z,7.62
2022-12-25T13:53:31.697Z,7.61
2022-12-25T13:56:34.620Z,7.62
2022-12-25T13:59:37.942Z,7.62
2022-12-25T14:02:39.586Z,7.62
2022-12-25T14:05:43.321Z,7.61
2022-12-25T14:08:46.315Z,7.62
2022-12-25T14:11:52.482Z,7.62
2022-12-25T14:14:54.879Z,7.61
2022-12-25T14:17:56.498Z,7.61
2022-12-25T14:21:02.184Z,7.60
2022-12-25T14:24:04.163Z,7.60
2022-12-25T14:27:15.134Z,7.57
2022-12-25T14:30:16.947Z,7.58
2022-12-25T14:33:22.519Z,7.56
2022-12-25T14:36:27.461Z,7.56
2022-12-25T14:39:40.530Z,7.55
2022-12-25T14:42:42.150Z,7.55
2022-12-25T14:45:53.490Z,7.56
2022-12-25T14:49:00.335Z,7.55
2022-12-25T14:52:43.166Z,7.53
2022-12-25T14:55:50.657Z,7.52
2022-12-25T14:58:55.670Z,7.52
2022-12-25T15:02:00.377Z,7.52
2022-12-25T15:05:05.104Z,7.52
2022-12-25T15:08:09.297Z,7.53
2022-12-25T15:11:10.778Z,7.53
2022-12-25T15:14:12.305Z,7.52
2022-12-25T15:17:35.161Z,7.52
2022-12-25T15:20:36.723Z,7.50
2022-12-25T15:23:38.332Z,7.50
2022-12-25T15:26:40.167Z,7.50
2022-12-25T15:33:04.672Z,7.51
2022-12-25T15:36:06.415Z,7.51
2022-12-25T15:39:08.187Z,7.50
2022-12-25T15:42:19.583Z,7.50
2022-12-25T15:45:23.977Z,7.49
2022-12-25T15:48:25.726Z,7.49
2022-12-25T15:51:29.658Z,7.47
2022-12-25T15:54:32.450Z,7.46
2022-12-25T15:57:34.804Z,7.47
2022-12-25T16:00:36.489Z,7.47
2022-12-25T16:03:43.077Z,7.47
2022-12-25T16:06:44.998Z,7.47
2022-12-25T16:09:46.617Z,7.46
2022-12-25T16:12:48.131Z,7.45
2022-12-25T16:15:51.687Z,7.45
2022-12-25T16:18:53.326Z,7.42
2022-12-25T16:21:54.865Z,7.43
2022-12-25T16:24:56.947Z,7.43
2022-12-25T16:27:58.477Z,7.45
2022-12-25T16:31:00.008Z,7.43
2022-12-25T16:34:01.699Z,7.43
2022-12-25T16:37:03.535Z,7.42
2022-12-25T16:40:06.464Z,7.41
2022-12-25T16:43:08.041Z,7.38
2022-12-25T16:46:12.856Z,7.37
2022-12-25T16:49:14.805Z,7.36
2022-12-25T16:52:16.399Z,7.34
2022-12-25T16:55:18.337Z,7.35
2022-12-25T16:58:21.034Z,7.34
2022-12-25T17:01:23.477Z,7.35
2022-12-25T17:04:27.043Z,7.34
2022-12-25T17:07:28.607Z,7.34
2022-12-25T17:10:30.129Z,7.35
2022-12-25T17:13:31.754Z,7.34
2022-12-25T17:16:36.019Z,7.35
2022-12-25T17:19:37.643Z,7.33
2022-12-25T17:22:39.147Z,7.32
2022-12-25T17:25:40.957Z,7.28
2022-12-25T17:28:42.525Z,7.27
2022-12-25T17:31:44.129Z,7.28
2022-12-25T17:34:45.811Z,7.29
2022-12-25T17:37:47.398Z,7.29
2022-12-25T17:40:56.110Z,7.31
2022-12-25T17:44:00.311Z,7.32
2022-12-25T17:47:01.995Z,7.32
2022-12-25T17:50:03.705Z,7.32
2022-12-25T17:53:05.302Z,7.33
2022-12-25T17:56:07.833Z,7.32
2022-12-25T17:59:13.340Z,7.32
2022-12-25T18:02:14.973Z,7.30
2022-12-25T18:05:16.573Z,7.31
2022-12-25T18:08:18.035Z,7.32
2022-12-25T18:11:23.410Z,7.32
2022-12-25T18:14:25.049Z,7.29
2022-12-25T18:17:26.565Z,7.30
2022-12-25T18:20:30.139Z,7.29
2022-12-25T18:23:34.136Z,7.30
2022-12-25T18:26:36.321Z,7.30
2022-12-25T18:29:38.085Z,7.29
2022-12-25T18:32:39.640Z,7.31
2022-12-25T18:35:42.919Z,7.29
2022-12-25T18:38:44.567Z,7.33
2022-12-25T18:41:46.149Z,7.31
2022-12-25T18:44:47.695Z,7.32
2022-12-25T18:47:49.368Z,7.32
2022-12-25T18:50:56.157Z,7.34
2022-12-25T18:53:57.625Z,7.35
2022-12-25T18:57:03.739Z,7.35
2022-12-25T19:00:11.789Z,7.34
2022-12-25T19:03:13.387Z,7.35
2022-12-25T19:06:20.225Z,7.32
2022-12-25T19:09:21.751Z,7.31
2022-12-25T19:12:23.733Z,7.30
2022-12-25T19:15:25.206Z,7.32
2022-12-25T19:18:27.973Z,7.30
2022-12-25T19:21:29.537Z,7.27
2022-12-25T19:24:31.354Z,7.26
2022-12-25T19:27:35.223Z,7.26
2022-12-25T19:30:38.294Z,7.24
2022-12-25T19:33:41.256Z,7.23
2022-12-25T19:36:44.961Z,7.25
2022-12-25T19:39:46.547Z,7.29
2022-12-25T19:42:48.333Z,7.35
2022-12-25T19:45:49.929Z,7.32
2022-12-25T19:48:51.916Z,7.36
2022-12-25T19:51:53.349Z,7.36
2022-12-25T19:54:57.930Z,7.36
2022-12-25T19:57:59.367Z,7.42
2022-12-25T20:01:06.289Z,7.47
2022-12-25T20:04:08.811Z,7.47
2022-12-25T20:07:10.357Z,7.51
2022-12-25T20:10:12.202Z,7.57
2022-12-25T20:13:16.215Z,7.66
2022-12-25T20:16:17.803Z,7.70
2022-12-25T20:19:19.371Z,7.69
2022-12-25T20:22:20.941Z,7.69
2022-12-25T20:25:22.588Z,7.73
2022-12-25T20:28:24.042Z,7.76
2022-12-25T20:31:28.904Z,7.72
2022-12-25T20:34:30.431Z,7.73
2022-12-25T20:37:32.003Z,7.74
2022-12-25T20:40:52.981Z,7.73
2022-12-25T20:43:55.121Z,7.76
2022-12-25T20:46:57.051Z,7.73
2022-12-25T20:49:58.572Z,7.72
2022-12-25T20:53:00.094Z,7.74
2022-12-25T20:56:01.858Z,7.73
2022-12-25T20:59:03.487Z,7.74
2022-12-25T21:02:05.210Z,7.76
2022-12-25T21:05:07.405Z,7.73
2022-12-25T21:08:08.897Z,7.75
2022-12-25T21:11:10.916Z,7.75
2022-12-25T21:14:12.390Z,7.77
2022-12-25T21:17:13.829Z,7.78
2022-12-25T21:20:15.443Z,7.78
2022-12-25T21:23:17.587Z,7.84
2022-12-25T21:26:25.007Z,7.84
2022-12-25T21:29:26.543Z,7.83
2022-12-25T21:32:28.021Z,7.77
2022-12-25T21:35:29.642Z,7.80
2022-12-25T21:38:31.233Z,7.80
2022-12-25T21:41:37.720Z,7.83
2022-12-25T21:44:39.254Z,7.85
2022-12-25T21:48:01.866Z,7.89
2022-12-25T21:51:07.095Z,7.89
2022-12-25T21:54:09.723Z,7.88
2022-12-25T21:57:14.417Z,7.83
2022-12-25T22:00:16.128Z,7.83
2022-12-25T22:03:17.716Z,7.86
2022-12-25T22:06:21.603Z,7.84
2022-12-25T22:09:23.382Z,7.85
2022-12-25T22:12:30.191Z,7.75
2022-12-25T22:15:33.570Z,7.72
2022-12-25T22:18:35.077Z,7.76
2022-12-25T22:21:36.640Z,7.78
2022-12-25T22:24:38.728Z,7.72
2022-12-25T22:27:42.040Z,7.65
2022-12-25T22:30:43.559Z,7.62
2022-12-25T22:33:47.782Z,7.63
2022-12-25T22:36:49.323Z,7.59
2022-12-25T22:39:50.906Z,7.62
2022-12-25T22:42:56.403Z,7.68
2022-12-25T22:46:01.757Z,7.66
2022-12-25T22:49:03.237Z,7.68
2022-12-25T22:52:05.053Z,7.67
2022-12-25T22:55:09.102Z,7.68
2022-12-25T22:58:13.254Z,7.69
2022-12-25T23:01:15.648Z,7.68
2022-12-25T23:04:17.654Z,7.75
2022-12-25T23:07:20.096Z,7.77
2022-12-25T23:10:21.665Z,7.76
2022-12-25T23:13:23.177Z,7.81
2022-12-25T23:16:24.790Z,7.81
2022-12-25T23:19:26.656Z,7.77
2022-12-25T23:22:28.191Z,7.75
2022-12-25T23:25:32.807Z,7.79
2022-12-25T23:28:39.054Z,7.78
2022-12-25T23:31:41.935Z,7.77
2022-12-25T23:34:46.662Z,7.80
2022-12-25T23:37:48.146Z,7.81
2022-12-25T23:40:49.639Z,7.81
2022-12-25T23:43:51.167Z,7.83
2022-12-25T23:46:53.633Z,7.81
2022-12-25T23:49:55.330Z,7.78
2022-12-25T23:52:56.871Z,7.78
2022-12-25T23:55:59.214Z,7.83
2022-12-25T23:59:00.785Z,7.80
